createdAt,value
2023-12-05T00:00:58.632Z,94856.00
2023-12-05T00:03:44.780Z,94860.00
2023-12-05T00:06:30.994Z,94857.00
2023-12-05T00:09:16.949Z,94852.00
2023-12-05T00:12:02.385Z,94847.00
2023-12-05T00:14:47.981Z,94850.00
2023-12-05T00:17:33.561Z,94837.00
2023-12-05T00:20:19.040Z,94832.00
2023-12-05T00:23:04.607Z,94832.00
2023-12-05T00:25:50.179Z,94824.00
2023-12-05T00:28:35.861Z,94835.00
2023-12-05T00:31:21.937Z,94829.00
2023-12-05T00:34:08.156Z,94828.00
2023-12-05T00:36:54.016Z,94832.00
2023-12-05T00:39:40.570Z,94841.00
2023-12-05T00:42:26.493Z,94829.00
2023-12-05T00:45:15.753Z,94833.00
2023-12-05T00:48:01.450Z,94827.00
2023-12-05T00:50:47.655Z,94830.00
2023-12-05T00:53:33.348Z,94811.00
2023-12-05T00:56:20.163Z,94808.00
2023-12-05T00:59:06.041Z,94829.00
2023-12-05T01:01:51.991Z,94814.00
2023-12-05T01:04:38.188Z,94823.00
2023-12-05T01:07:24.330Z,94819.00
2023-12-05T01:10:10.972Z,94821.00
2023-12-05T01:12:57.056Z,94816.00
2023-12-05T01:15:43.211Z,94816.00
2023-12-05T01:18:30.398Z,94819.00
2023-12-05T01:21:16.332Z,94823.00
2023-12-05T01:24:02.808Z,94819.00
2023-12-05T01:26:48.391Z,94818.00
2023-12-05T01:29:34.534Z,94819.00
2023-12-05T01:32:20.623Z,94827.00
2023-12-05T01:35:06.757Z,94817.00
2023-12-05T01:37:52.556Z,94818.00
2023-12-05T01:40:38.387Z,94825.00
2023-12-05T01:43:23.872Z,94827.00
2023-12-05T01:46:10.322Z,94833.00
2023-12-05T01:48:55.911Z,94826.00
2023-12-05T01:51:42.310Z,94824.00
2023-12-05T01:54:33.125Z,94822.00
2023-12-05T01:57:20.838Z,94814.00
2023-12-05T02:00:08.739Z,94818.00
2023-12-05T02:02:58.651Z,94819.00
2023-12-05T02:05:44.920Z,94816.00
2023-12-05T02:08:33.301Z,94816.00
2023-12-05T02:11:18.656Z,94815.00
2023-12-05T02:14:06.565Z,94812.00
2023-12-05T02:17:02.919Z,94808.00
2023-12-05T02:20:14.168Z,94805.00
2023-12-05T02:23:02.765Z,94804.00
2023-12-05T02:25:57.857Z,94799.00
2023-12-05T02:28:44.215Z,94811.00
2023-12-05T02:31:29.954Z,94798.00
2023-12-05T02:34:16.540Z,94803.00
2023-12-05T02:37:21.115Z,94800.00
2023-12-05T02:40:32.181Z,94802.00
2023-12-05T02:43:29.394Z,94796.00
2023-12-05T02:46:18.815Z,94791.00
2023-12-05T02:49:05.681Z,94800.00
2023-12-05T02:51:52.026Z,94797.00
2023-12-05T02:54:38.396Z,94808.00
2023-12-05T02:57:24.235Z,94797.00
2023-12-05T03:00:11.114Z,94805.00
2023-12-05T03:02:57.768Z,94802.00
2023-12-05T03:05:43.386Z,94799.00
2023-12-05T03:08:28.974Z,94800.00
2023-12-05T03:11:15.398Z,94809.00
2023-12-05T03:14:02.340Z,94796.00
2023-12-05T03:16:48.216Z,94798.00
2023-12-05T03:19:33.996Z,94794.00
2023-12-05T03:22:19.736Z,94797.00
2023-12-05T03:25:05.818Z,94804.00
2023-12-05T03:27:51.603Z,94803.00
2023-12-05T03:30:37.880Z,94806.00
2023-12-05T03:33:23.706Z,94800.00
2023-12-05T03:36:11.350Z,94795.00
2023-12-05T03:38:56.855Z,94806.00
2023-12-05T03:41:48.490Z,94800.00
2023-12-05T03:44:34.247Z,94808.00
2023-12-05T03:47:20.218Z,94811.00
2023-12-05T03:50:06.675Z,94803.00
2023-12-05T03:52:52.374Z,94806.00
2023-12-05T03:55:37.989Z,94811.00
2023-12-05T03:58:23.489Z,94817.00
2023-12-05T04:01:09.435Z,94809.00
2023-12-05T04:03:55.321Z,94810.00
2023-12-05T04:06:41.229Z,94823.00
2023-12-05T04:09:27.112Z,94811.00
2023-12-05T04:12:12.790Z,94822.00
2023-12-05T04:14:58.117Z,94802.00
2023-12-05T04:17:43.951Z,94816.00
2023-12-05T04:20:29.879Z,94807.00
2023-12-05T04:23:15.776Z,94804.00
2023-12-05T04:26:01.436Z,94791.00
2023-12-05T04:28:47.688Z,94815.00
2023-12-05T04:31:33.706Z,94807.00
2023-12-05T04:34:19.718Z,94812.00
2023-12-05T04:37:07.269Z,94804.00
2023-12-05T04:39:53.024Z,94813.00
2023-12-05T04:42:39.727Z,94826.00
2023-12-05T04:45:25.114Z,94809.00
2023-12-05T04:48:10.924Z,94812.00
2023-12-05T04:50:56.663Z,94815.00
2023-12-05T04:53:43.173Z,94786.00
2023-12-05T04:56:29.101Z,94803.00
2023-12-05T04:59:14.542Z,94810.00
2023-12-05T05:01:59.981Z,94813.00
2023-12-05T05:04:47.396Z,94822.00
2023-12-05T05:07:34.449Z,94804.00
2023-12-05T05:10:20.389Z,94795.00
2023-12-05T05:13:06.024Z,94804.00
2023-12-05T05:15:52.843Z,94816.00
2023-12-05T05:18:38.842Z,94816.00
2023-12-05T05:21:24.691Z,94814.00
2023-12-05T05:24:10.600Z,94827.00
2023-12-05T05:26:56.692Z,94832.00
2023-12-05T05:29:42.696Z,94833.00
2023-12-05T05:32:29.197Z,94827.00
2023-12-05T05:35:15.153Z,94825.00
2023-12-05T05:38:00.617Z,94830.00
2023-12-05T05:40:48.745Z,94838.00
2023-12-05T05:43:34.187Z,94843.00
2023-12-05T05:46:19.970Z,94843.00
2023-12-05T05:49:06.209Z,94842.00
2023-12-05T05:51:52.704Z,94850.00
2023-12-05T05:54:38.926Z,94843.00
2023-12-05T05:57:25.153Z,94850.00
2023-12-05T06:00:13.088Z,94841.00
2023-12-05T06:02:59.117Z,94850.00
2023-12-05T06:05:45.433Z,94842.00
2023-12-05T06:08:31.152Z,94853.00
2023-12-05T06:11:16.907Z,94846.00
2023-12-05T06:14:02.451Z,94863.00
2023-12-05T06:16:48.226Z,94862.00
2023-12-05T06:19:33.827Z,94856.00
2023-12-05T06:22:19.663Z,94863.00
2023-12-05T06:25:05.973Z,94860.00
2023-12-05T06:27:51.640Z,94863.00
2023-12-05T06:30:37.022Z,94862.00
2023-12-05T06:33:23.166Z,94871.00
2023-12-05T06:36:09.443Z,94863.00
2023-12-05T06:38:56.124Z,94863.00
2023-12-05T06:41:42.068Z,94868.00
2023-12-05T06:44:27.466Z,94868.00
2023-12-05T06:47:13.604Z,94869.00
2023-12-05T06:50:03.000Z,94875.00
2023-12-05T06:52:49.930Z,94880.00
2023-12-05T06:55:35.871Z,94875.00
2023-12-05T06:58:23.384Z,94869.00
2023-12-05T07:01:09.893Z,94883.00
2023-12-05T07:03:57.544Z,94872.00
2023-12-05T07:06:45.116Z,94867.00
2023-12-05T07:09:34.202Z,94872.00
2023-12-05T07:12:20.455Z,94875.00
2023-12-05T07:15:09.597Z,94890.00
2023-12-05T07:17:55.264Z,94888.00
2023-12-05T07:20:41.663Z,94908.00
2023-12-05T07:23:27.543Z,94898.00
2023-12-05T07:26:13.498Z,94899.00
2023-12-05T07:28:59.429Z,94902.00
2023-12-05T07:31:45.504Z,94921.00
2023-12-05T07:34:31.022Z,94932.00
2023-12-05T07:37:16.912Z,94934.00
2023-12-05T07:40:06.941Z,94918.00
2023-12-05T07:42:53.343Z,94929.00
2023-12-05T07:45:39.627Z,94942.00
2023-12-05T07:48:25.505Z,94961.00
2023-12-05T07:51:19.594Z,94939.00
2023-12-05T07:54:06.506Z,94946.00
2023-12-05T07:56:52.708Z,94946.00
2023-12-05T07:59:39.725Z,94942.00
2023-12-05T08:02:25.920Z,94938.00
2023-12-05T08:05:12.680Z,94927.00
2023-12-05T08:08:27.254Z,94925.00
2023-12-05T08:11:18.071Z,94927.00
2023-12-05T08:14:09.293Z,94930.00
2023-12-05T08:16:55.459Z,94953.00
2023-12-05T08:19:41.594Z,94936.00
2023-12-05T08:22:28.199Z,94939.00
2023-12-05T08:25:14.036Z,94942.00
2023-12-05T08:28:00.038Z,94947.00
2023-12-05T08:30:46.245Z,94942.00
2023-12-05T08:33:32.201Z,94960.00
2023-12-05T08:36:18.152Z,94956.00
2023-12-05T08:39:04.953Z,94950.00
2023-12-05T08:41:51.305Z,94957.00
2023-12-05T08:44:37.440Z,94961.00
2023-12-05T08:47:23.322Z,94957.00
2023-12-05T08:50:10.441Z,94953.00
2023-12-05T08:56:54.000Z,94951.00
2023-12-05T08:59:40.296Z,94947.00
2023-12-05T09:02:26.510Z,94956.00
2023-12-05T09:05:12.556Z,94947.00
2023-12-05T09:07:58.793Z,94959.00
2023-12-05T09:10:45.998Z,94949.00
2023-12-05T09:13:31.726Z,94953.00
2023-12-05T09:16:17.639Z,94955.00
2023-12-05T09:19:03.586Z,94955.00
2023-12-05T09:21:53.276Z,94951.00
2023-12-05T09:24:39.805Z,94947.00
2023-12-05T09:27:26.609Z,94954.00
2023-12-05T09:30:14.088Z,94963.00
2023-12-05T09:33:00.383Z,94955.00
2023-12-05T09:35:46.852Z,94960.00
2023-12-05T09:38:33.170Z,94974.00
2023-12-05T09:41:20.782Z,94982.00
2023-12-05T09:44:09.791Z,94976.00
2023-12-05T09:47:00.100Z,94983.00
2023-12-05T09:49:46.882Z,94980.00
2023-12-05T09:52:33.385Z,94988.00
2023-12-05T09:55:20.038Z,94988.00
2023-12-05T09:58:05.875Z,94982.00
2023-12-05T10:00:56.072Z,94978.00
2023-12-05T10:03:45.563Z,94981.00
2023-12-05T10:06:36.284Z,94980.00
2023-12-05T10:09:24.681Z,94966.00
2023-12-05T10:12:12.243Z,94964.00
2023-12-05T10:14:58.362Z,94965.00
2023-12-05T10:17:45.976Z,94956.00
2023-12-05T10:20:33.756Z,94956.00
2023-12-05T10:23:20.040Z,94947.00
2023-12-05T10:26:07.008Z,94940.00
2023-12-05T10:28:56.124Z,94941.00
2023-12-05T10:31:45.003Z,94941.00
2023-12-05T10:34:30.991Z,94945.00
2023-12-05T10:37:29.555Z,94937.00
2023-12-05T10:40:15.432Z,94945.00
2023-12-05T10:43:01.015Z,94946.00
2023-12-05T10:45:46.731Z,94952.00
2023-12-05T10:48:33.128Z,94948.00
2023-12-05T10:51:19.639Z,94948.00
2023-12-05T10:54:05.337Z,94942.00
2023-12-05T10:56:58.787Z,94953.00
2023-12-05T10:59:45.761Z,94948.00
2023-12-05T11:02:33.106Z,94933.00
2023-12-05T11:05:20.619Z,94937.00
2023-12-05T11:08:06.640Z,94930.00
2023-12-05T11:10:55.120Z,94941.00
2023-12-05T11:13:43.240Z,94937.00
2023-12-05T11:16:37.278Z,94938.00
2023-12-05T11:20:05.036Z,94938.00
2023-12-05T11:23:55.904Z,94932.00
2023-12-05T11:27:10.072Z,94934.00
2023-12-05T11:30:22.161Z,94927.00
2023-12-05T11:33:55.431Z,94932.00
2023-12-05T11:36:49.083Z,94942.00
2023-12-05T11:39:35.411Z,94931.00
2023-12-05T11:42:21.746Z,94946.00
2023-12-05T11:45:23.853Z,94948.00
2023-12-05T11:48:17.403Z,94938.00
2023-12-05T11:51:04.155Z,94936.00
2023-12-05T11:53:51.088Z,94939.00
2023-12-05T11:56:37.878Z,94949.00
2023-12-05T11:59:25.500Z,94958.00
2023-12-05T12:02:19.912Z,94948.00
2023-12-05T12:05:08.234Z,94939.00
2023-12-05T12:07:59.049Z,94947.00
2023-12-05T12:10:45.156Z,94938.00
2023-12-05T12:13:31.239Z,94937.00
2023-12-05T12:16:22.053Z,94929.00
2023-12-05T12:19:13.644Z,94922.00
2023-12-05T12:22:10.038Z,94928.00
2023-12-05T12:25:15.049Z,94923.00
2023-12-05T12:28:01.546Z,94912.00
2023-12-05T12:30:48.004Z,94914.00
2023-12-05T12:33:42.054Z,94912.00
2023-12-05T12:36:28.214Z,94905.00
2023-12-05T12:39:16.751Z,94911.00
2023-12-05T12:42:02.965Z,94917.00
2023-12-05T12:44:49.274Z,94922.00
2023-12-05T12:47:36.264Z,94926.00
2023-12-05T12:50:22.196Z,94924.00
2023-12-05T12:53:07.957Z,94934.00
2023-12-05T12:55:54.588Z,94928.00
2023-12-05T12:58:44.122Z,94923.00
2023-12-05T13:01:31.078Z,94925.00
2023-12-05T13:04:17.668Z,94917.00
2023-12-05T13:07:04.151Z,94912.00
2023-12-05T13:09:50.223Z,94921.00
2023-12-05T13:12:36.373Z,94920.00
2023-12-05T13:15:28.319Z,94923.00
2023-12-05T13:18:14.250Z,94919.00
2023-12-05T13:21:00.208Z,94926.00
2023-12-05T13:23:46.272Z,94924.00
2023-12-05T13:26:32.174Z,94923.00
2023-12-05T13:29:17.963Z,94923.00
2023-12-05T13:32:05.531Z,94918.00
2023-12-05T13:34:51.205Z,94924.00
2023-12-05T13:37:38.087Z,94931.00
2023-12-05T13:40:24.731Z,94922.00
2023-12-05T13:43:10.661Z,94925.00
2023-12-05T13:45:56.344Z,94921.00
2023-12-05T13:48:43.250Z,94925.00
2023-12-05T13:51:30.632Z,94929.00
2023-12-05T13:54:17.875Z,94936.00
2023-12-05T13:57:04.180Z,94937.00
2023-12-05T13:59:50.438Z,94928.00
2023-12-05T14:02:37.785Z,94933.00
2023-12-05T14:05:23.941Z,94936.00
2023-12-05T14:08:09.851Z,94939.00
2023-12-05T14:10:55.880Z,94950.00
2023-12-05T14:13:41.734Z,94953.00
2023-12-05T14:16:28.511Z,94958.00
2023-12-05T14:19:14.942Z,94960.00
2023-12-05T14:22:01.097Z,94971.00
2023-12-05T14:24:47.247Z,94972.00
2023-12-05T14:27:33.326Z,94971.00
2023-12-05T14:30:19.244Z,94976.00
2023-12-05T14:33:05.573Z,94974.00
2023-12-05T14:35:51.638Z,94981.00
2023-12-05T14:38:37.154Z,94973.00
2023-12-05T14:41:23.470Z,94976.00
2023-12-05T14:44:09.783Z,94980.00
2023-12-05T14:46:58.280Z,94976.00
2023-12-05T14:49:44.128Z,94982.00
2023-12-05T14:52:30.222Z,94980.00
2023-12-05T14:55:16.695Z,94985.00
2023-12-05T14:58:02.332Z,94989.00
2023-12-05T15:00:48.488Z,94984.00
2023-12-05T15:03:34.836Z,94986.00
2023-12-05T15:06:21.245Z,94986.00
2023-12-05T15:09:07.681Z,94983.00
2023-12-05T15:11:53.621Z,94990.00
2023-12-05T15:14:39.876Z,94994.00
2023-12-05T15:17:25.770Z,94991.00
2023-12-05T15:20:20.185Z,94993.00
2023-12-05T15:23:09.296Z,94991.00
2023-12-05T15:25:55.349Z,94990.00
2023-12-05T15:28:41.597Z,94981.00
2023-12-05T15:31:27.320Z,94984.00
2023-12-05T15:34:13.128Z,94991.00
2023-12-05T15:36:59.831Z,94985.00
2023-12-05T15:39:45.692Z,94989.00
2023-12-05T15:42:31.688Z,94987.00
2023-12-05T15:45:20.542Z,94991.00
2023-12-05T15:48:07.543Z,94991.00
2023-12-05T15:51:13.592Z,94990.00
2023-12-05T15:53:59.430Z,94992.00
2023-12-05T15:56:45.745Z,94999.00
2023-12-05T15:59:31.897Z,94995.00
2023-12-05T16:02:22.878Z,94996.00
2023-12-05T16:05:09.361Z,94996.00
2023-12-05T16:07:55.353Z,94996.00
2023-12-05T16:10:46.000Z,94999.00
2023-12-05T16:13:31.976Z,95011.00
2023-12-05T16:16:18.862Z,95006.00
2023-12-05T16:19:05.222Z,95000.00
2023-12-05T16:21:51.408Z,94999.00
2023-12-05T16:24:38.746Z,94996.00
2023-12-05T16:27:24.519Z,94995.00
2023-12-05T16:30:11.368Z,94999.00
2023-12-05T16:32:57.582Z,95006.00
2023-12-05T16:35:43.509Z,95012.00
2023-12-05T16:38:29.100Z,95005.00
2023-12-05T16:41:14.789Z,95014.00
2023-12-05T16:44:01.290Z,95004.00
2023-12-05T16:46:47.368Z,95011.00
2023-12-05T16:49:34.162Z,95015.00
2023-12-05T16:52:20.495Z,95013.00
2023-12-05T16:55:06.592Z,95013.00
2023-12-05T16:57:54.610Z,95016.00
2023-12-05T17:00:40.396Z,95019.00
2023-12-05T17:03:26.753Z,95019.00
2023-12-05T17:06:12.754Z,95022.00
2023-12-05T17:09:01.212Z,95010.00
2023-12-05T17:11:48.905Z,95010.00
2023-12-05T17:14:34.690Z,95018.00
2023-12-05T17:17:20.398Z,95023.00
2023-12-05T17:20:07.820Z,95023.00
2023-12-05T17:22:54.562Z,95025.00
2023-12-05T17:25:41.221Z,95025.00
2023-12-05T17:28:28.178Z,95023.00
2023-12-05T17:31:14.257Z,95024.00
2023-12-05T17:34:01.274Z,95034.00
2023-12-05T17:36:47.173Z,95037.00
2023-12-05T17:39:33.783Z,95038.00
2023-12-05T17:42:19.610Z,95032.00
2023-12-05T17:45:06.574Z,95025.00
2023-12-05T17:47:52.335Z,95033.00
2023-12-05T17:50:40.045Z,95033.00
2023-12-05T17:53:28.956Z,95029.00
2023-12-05T17:56:15.411Z,95024.00
2023-12-05T17:59:01.397Z,95030.00
2023-12-05T18:01:47.294Z,95030.00
2023-12-05T18:04:33.184Z,95033.00
2023-12-05T18:07:51.937Z,95042.00
2023-12-05T18:10:25.161Z,95035.00
2023-12-05T18:13:12.807Z,95031.00
2023-12-05T18:16:00.776Z,95036.00
2023-12-05T18:18:51.991Z,95032.00
2023-12-05T18:21:38.380Z,95044.00
2023-12-05T18:24:24.345Z,95046.00
2023-12-05T18:27:13.119Z,95057.00
2023-12-05T18:29:58.862Z,95049.00
2023-12-05T18:32:44.949Z,95042.00
2023-12-05T18:35:31.623Z,95056.00
2023-12-05T18:38:18.499Z,95071.00
2023-12-05T18:41:04.461Z,95065.00
2023-12-05T18:43:51.037Z,95075.00
2023-12-05T18:46:37.551Z,95067.00
2023-12-05T18:49:25.493Z,95076.00
2023-12-05T18:52:11.332Z,95068.00
2023-12-05T18:54:58.039Z,95075.00
2023-12-05T18:57:44.655Z,95073.00
2023-12-05T19:00:30.866Z,95081.00
2023-12-05T19:03:18.499Z,95076.00
2023-12-05T19:06:09.059Z,95075.00
2023-12-05T19:08:54.922Z,95073.00
2023-12-05T19:11:40.949Z,95073.00
2023-12-05T19:14:26.846Z,95064.00
2023-12-05T19:17:13.004Z,95073.00
2023-12-05T19:20:00.014Z,95069.00
2023-12-05T19:22:48.200Z,95073.00
2023-12-05T19:25:34.022Z,95078.00
2023-12-05T19:28:23.574Z,95082.00
2023-12-05T19:31:09.219Z,95079.00
2023-12-05T19:33:56.005Z,95073.00
2023-12-05T19:36:42.104Z,95076.00
2023-12-05T19:39:29.912Z,95078.00
2023-12-05T19:42:17.250Z,95079.00
2023-12-05T19:45:03.595Z,95080.00
2023-12-05T19:47:49.785Z,95083.00
2023-12-05T19:50:36.121Z,95085.00
2023-12-05T19:53:22.143Z,95083.00
2023-12-05T19:56:09.800Z,95084.00
2023-12-05T19:58:57.431Z,95083.00
2023-12-05T20:01:43.718Z,95089.00
2023-12-05T20:04:29.714Z,95078.00
2023-12-05T20:07:15.703Z,95095.00
2023-12-05T20:10:02.084Z,95091.00
2023-12-05T20:12:47.754Z,95089.00
2023-12-05T20:15:33.533Z,95101.00
2023-12-05T20:18:20.619Z,95089.00
2023-12-05T20:21:06.209Z,95102.00
2023-12-05T20:23:51.965Z,95100.00
2023-12-05T20:26:41.273Z,95097.00
2023-12-05T20:29:26.887Z,95101.00
2023-12-05T20:32:12.967Z,95108.00
2023-12-05T20:34:58.499Z,95104.00
2023-12-05T20:37:44.537Z,95111.00
2023-12-05T20:40:30.766Z,95108.00
2023-12-05T20:43:16.451Z,95112.00
2023-12-05T20:46:05.227Z,95105.00
2023-12-05T20:48:53.296Z,95099.00
2023-12-05T20:51:38.997Z,95105.00
2023-12-05T20:54:25.994Z,95107.00
2023-12-05T20:57:13.530Z,95095.00
2023-12-05T20:59:59.367Z,95101.00
2023-12-05T21:02:45.346Z,95099.00
2023-12-05T21:05:31.203Z,95102.00
2023-12-05T21:08:20.270Z,95106.00
2023-12-05T21:11:06.264Z,95116.00
2023-12-05T21:13:52.019Z,95104.00
2023-12-05T21:16:37.883Z,95103.00
2023-12-05T21:19:24.237Z,95110.00
2023-12-05T21:22:10.377Z,95098.00
2023-12-05T21:24:56.974Z,95109.00
2023-12-05T21:27:42.826Z,95098.00
2023-12-05T21:30:28.706Z,95112.00
2023-12-05T21:33:15.609Z,95111.00
2023-12-05T21:36:01.176Z,95114.00
2023-12-05T21:38:47.335Z,95115.00
2023-12-05T21:41:33.458Z,95114.00
2023-12-05T21:44:20.093Z,95115.00
2023-12-05T21:47:05.717Z,95123.00
2023-12-05T21:49:52.601Z,95123.00
2023-12-05T21:52:38.544Z,95122.00
2023-12-05T21:55:24.642Z,95140.00
2023-12-05T21:58:10.692Z,95136.00
2023-12-05T22:00:57.015Z,95131.00
2023-12-05T22:03:44.287Z,95137.00
2023-12-05T22:06:30.334Z,95136.00
2023-12-05T22:09:16.482Z,95138.00
2023-12-05T22:12:02.199Z,95142.00
2023-12-05T22:14:48.073Z,95144.00
2023-12-05T22:17:35.588Z,95143.00
2023-12-05T22:20:21.473Z,95141.00
2023-12-05T22:23:09.320Z,95146.00
2023-12-05T22:26:01.375Z,95144.00
2023-12-05T22:28:47.831Z,95152.00
2023-12-05T22:31:34.000Z,95150.00
2023-12-05T22:34:19.702Z,95147.00
2023-12-05T22:37:05.710Z,95150.00
2023-12-05T22:39:51.429Z,95145.00
2023-12-05T22:42:37.900Z,95152.00
2023-12-05T22:45:23.782Z,95149.00
2023-12-05T22:48:10.703Z,95153.00
2023-12-05T22:50:56.645Z,95160.00
2023-12-05T22:53:42.191Z,95159.00
2023-12-05T22:56:28.001Z,95165.00
2023-12-05T22:59:13.952Z,95160.00
2023-12-05T23:01:59.828Z,95159.00
2023-12-05T23:04:45.845Z,95163.00
2023-12-05T23:07:32.039Z,95165.00
2023-12-05T23:10:19.224Z,95159.00
2023-12-05T23:13:05.004Z,95160.00
2023-12-05T23:15:53.757Z,95160.00
2023-12-05T23:18:39.254Z,95162.00
2023-12-05T23:21:24.662Z,95157.00
2023-12-05T23:24:10.665Z,95170.00
2023-12-05T23:26:56.476Z,95164.00
2023-12-05T23:29:42.188Z,95162.00
2023-12-05T23:32:27.852Z,95159.00
2023-12-05T23:35:13.405Z,95159.00
2023-12-05T23:37:58.751Z,95159.00
2023-12-05T23:40:44.561Z,95160.00
2023-12-05T23:43:30.229Z,95159.00
2023-12-05T23:46:17.020Z,95154.00
2023-12-05T23:49:02.641Z,95154.00
2023-12-05T23:51:48.621Z,95154.00
2023-12-05T23:54:35.319Z,95153.00
2023-12-05T23:57:21.503Z,95151.00
